Terminal Aerodrome Forecast
Issued by NWS Cleveland, OH

Home | Current Version | Previous Version | Text Only | Print | Product List | Glossary Off
Versions: 1 2 3 4 5 6 7 8 9 10 11 12 13 14 15

000
FTUS41 KCLE 250825 AAA
TAFERI
TAF AMD
KERI 250825Z 2508/2606 20010KT P6SM VCSH SCT040 BKN150
     FM251100 22010KT P6SM VCTS BKN045CB OVC120
      TEMPO 2511/2513 28012KT 4SM -TSRA BKN035CB
     FM251600 25010G18KT P6SM SCT040 BKN150
     FM260000 22004KT P6SM SKC=

USA.gov is the U.S. government's official web portal to all federal, state and local government web resources and services.